createdAt,value
2018-11-25T00:02:23.543Z,6.04
2018-11-25T00:04:56.490Z,6.03
2018-11-25T00:07:34.692Z,6.07
2018-11-25T00:10:13.160Z,6.11
2018-11-25T00:12:56.249Z,6.09
2018-11-25T00:15:43.256Z,6.22
2018-11-25T00:18:14.294Z,6.11
2018-11-25T00:20:57.620Z,6.03
2018-11-25T00:23:36.267Z,6.00
2018-11-25T00:26:08.815Z,6.09
2018-11-25T00:28:45.608Z,6.09
2018-11-25T00:31:22.069Z,6.04
2018-11-25T00:36:41.749Z,6.22
2018-11-25T00:39:13.299Z,6.25
2018-11-25T00:41:47.315Z,6.07
2018-11-25T00:44:20.437Z,5.89
2018-11-25T00:46:54.474Z,5.83
2018-11-25T00:52:08.996Z,5.88
2018-11-25T00:54:41.614Z,5.91
2018-11-25T00:57:15.768Z,5.85
2018-11-25T00:59:55.149Z,5.84
2018-11-25T01:02:35.124Z,5.93
2018-11-25T01:05:14.422Z,6.01
2018-11-25T01:07:46.521Z,6.19
2018-11-25T01:10:29.237Z,6.18
2018-11-25T01:13:04.228Z,6.21
2018-11-25T01:15:37.472Z,6.04
2018-11-25T01:18:10.135Z,5.99
2018-11-25T01:20:41.323Z,6.08
2018-11-25T01:23:14.365Z,6.15
2018-11-25T01:25:45.858Z,6.01
2018-11-25T01:28:17.277Z,6.07
2018-11-25T01:30:49.724Z,6.03
2018-11-25T01:33:20.750Z,6.03
2018-11-25T01:35:51.487Z,6.00
2018-11-25T01:38:24.997Z,6.18
2018-11-25T01:40:56.043Z,6.06
2018-11-25T01:43:26.937Z,5.97
2018-11-25T01:45:58.948Z,5.94
2018-11-25T01:48:31.707Z,5.99
2018-11-25T01:51:02.956Z,6.03
2018-11-25T01:53:34.376Z,5.95
2018-11-25T01:56:06.574Z,5.94
2018-11-25T01:58:39.220Z,5.93
2018-11-25T02:01:12.661Z,6.00
2018-11-25T02:03:46.333Z,6.02
2018-11-25T02:06:17.180Z,6.01
2018-11-25T02:08:47.863Z,6.12
2018-11-25T02:11:18.746Z,6.14
2018-11-25T02:13:49.507Z,6.12
2018-11-25T02:16:20.093Z,6.02
2018-11-25T02:18:51.025Z,6.09
2018-11-25T02:21:21.819Z,6.10
2018-11-25T02:23:53.579Z,6.13
2018-11-25T02:26:24.224Z,6.21
2018-11-25T02:28:55.548Z,6.10
2018-11-25T02:31:26.642Z,6.16
2018-11-25T02:33:57.271Z,6.10
2018-11-25T02:36:28.213Z,6.16
2018-11-25T02:38:58.836Z,6.31
2018-11-25T02:41:29.473Z,6.41
2018-11-25T02:44:00.366Z,6.45
2018-11-25T02:46:31.867Z,6.53
2018-11-25T02:49:02.430Z,6.56
2018-11-25T02:51:33.125Z,6.57
2018-11-25T02:54:04.430Z,6.53
2018-11-25T02:56:35.479Z,6.44
2018-11-25T02:59:06.506Z,6.42
2018-11-25T03:01:37.121Z,6.42
2018-11-25T03:04:07.769Z,6.49
2018-11-25T03:06:38.283Z,6.42
2018-11-25T03:09:09.560Z,6.40
2018-11-25T03:11:40.140Z,6.36
2018-11-25T03:14:11.356Z,6.42
2018-11-25T03:16:42.501Z,6.49
2018-11-25T03:19:13.755Z,6.47
2018-11-25T03:21:44.920Z,6.39
2018-11-25T03:24:15.666Z,6.46
2018-11-25T03:26:46.776Z,6.32
2018-11-25T03:29:18.039Z,6.30
2018-11-25T03:31:50.133Z,6.29
2018-11-25T03:34:21.842Z,6.31
2018-11-25T03:36:52.777Z,6.28
2018-11-25T03:39:23.236Z,6.28
2018-11-25T03:41:53.847Z,6.28
2018-11-25T03:44:25.507Z,6.27
2018-11-25T03:46:56.258Z,6.32
2018-11-25T03:49:27.056Z,6.36
2018-11-25T03:51:58.203Z,6.37
2018-11-25T03:54:28.335Z,6.34
2018-11-25T03:56:59.026Z,6.26
2018-11-25T03:59:29.208Z,6.17
2018-11-25T04:02:01.534Z,6.19
2018-11-25T04:04:32.254Z,6.18
2018-11-25T04:07:03.386Z,6.25
2018-11-25T04:09:34.968Z,6.26
2018-11-25T04:12:07.684Z,6.25
2018-11-25T04:14:40.261Z,6.37
2018-11-25T04:17:11.957Z,6.37
2018-11-25T04:19:42.955Z,6.33
2018-11-25T04:22:15.632Z,6.37
2018-11-25T04:24:46.864Z,6.30
2018-11-25T04:27:17.789Z,6.25
2018-11-25T04:29:49.235Z,6.39
2018-11-25T04:32:19.964Z,6.39
2018-11-25T04:34:50.736Z,6.30
2018-11-25T04:37:21.369Z,6.29
2018-11-25T04:39:52.802Z,6.35
2018-11-25T04:42:23.755Z,6.42
2018-11-25T04:44:56.108Z,6.41
2018-11-25T04:47:26.825Z,6.39
2018-11-25T04:49:57.566Z,6.51
2018-11-25T04:52:28.300Z,6.52
2018-11-25T04:54:59.295Z,6.51
2018-11-25T04:57:31.401Z,6.43
2018-11-25T05:00:02.440Z,6.41
2018-11-25T05:02:35.372Z,6.45
2018-11-25T05:05:08.626Z,6.42
2018-11-25T05:07:40.420Z,6.39
2018-11-25T05:10:19.502Z,6.35
2018-11-25T05:12:50.574Z,6.38
2018-11-25T05:15:22.930Z,6.36
2018-11-25T05:17:54.037Z,6.46
2018-11-25T05:20:25.449Z,6.38
2018-11-25T05:22:58.169Z,6.33
2018-11-25T05:25:28.753Z,6.33
2018-11-25T05:27:59.252Z,6.33
2018-11-25T05:30:30.032Z,6.34
2018-11-25T05:33:00.747Z,6.32
2018-11-25T05:35:31.261Z,6.29
2018-11-25T05:38:03.364Z,6.26
2018-11-25T05:40:34.055Z,6.31
2018-11-25T05:43:04.974Z,6.39
2018-11-25T05:45:35.631Z,6.37
2018-11-25T05:48:06.759Z,6.38
2018-11-25T05:50:38.552Z,6.27
2018-11-25T05:53:11.373Z,6.26
2018-11-25T05:55:42.131Z,6.26
2018-11-25T05:58:13.111Z,6.32
2018-11-25T06:00:44.408Z,6.36
2018-11-25T06:03:15.889Z,6.34
2018-11-25T06:05:46.444Z,6.37
2018-11-25T06:08:17.606Z,6.36
2018-11-25T06:10:49.193Z,6.37
2018-11-25T06:13:20.042Z,6.32
2018-11-25T06:15:51.384Z,6.25
2018-11-25T06:18:22.094Z,6.18
2018-11-25T06:20:53.629Z,6.13
2018-11-25T06:23:24.201Z,6.09
2018-11-25T06:25:54.844Z,6.05
2018-11-25T06:28:26.273Z,6.11
2018-11-25T06:30:56.908Z,6.17
2018-11-25T06:33:28.235Z,6.19
2018-11-25T06:35:58.827Z,6.18
2018-11-25T06:38:29.535Z,6.21
2018-11-25T06:41:00.353Z,6.10
2018-11-25T06:43:31.123Z,6.12
2018-11-25T06:46:02.410Z,6.11
2018-11-25T06:48:33.305Z,6.03
2018-11-25T06:51:04.663Z,5.98
2018-11-25T06:53:36.596Z,5.98
2018-11-25T06:56:07.519Z,5.94
2018-11-25T06:58:38.138Z,6.02
2018-11-25T07:01:10.864Z,6.07
2018-11-25T07:03:41.378Z,6.19
2018-11-25T07:06:12.382Z,6.19
2018-11-25T07:08:43.329Z,6.09
2018-11-25T07:11:14.276Z,5.98
2018-11-25T07:13:45.097Z,5.97
2018-11-25T07:16:18.479Z,6.02
2018-11-25T07:18:50.591Z,6.05
2018-11-25T07:21:22.979Z,6.06
2018-11-25T07:23:55.227Z,5.99
2018-11-25T07:26:27.729Z,5.92
2018-11-25T07:28:58.722Z,5.92
2018-11-25T07:31:30.269Z,5.96
2018-11-25T07:34:00.998Z,5.99
2018-11-25T07:36:31.836Z,5.91
2018-11-25T07:39:03.587Z,5.93
2018-11-25T07:41:35.722Z,5.92
2018-11-25T07:44:07.394Z,5.98
2018-11-25T07:46:38.950Z,6.06
2018-11-25T07:49:10.492Z,5.96
2018-11-25T07:51:41.092Z,5.94
2018-11-25T07:54:11.676Z,5.90
2018-11-25T07:56:42.530Z,5.89
2018-11-25T07:59:13.375Z,5.85
2018-11-25T08:01:44.150Z,5.94
2018-11-25T08:04:15.885Z,5.96
2018-11-25T08:06:46.838Z,6.05
2018-11-25T08:09:18.983Z,6.01
2018-11-25T08:11:50.605Z,6.01
2018-11-25T08:14:31.110Z,6.06
2018-11-25T08:17:05.330Z,6.04
2018-11-25T08:19:37.386Z,6.06
2018-11-25T08:22:09.224Z,6.11
2018-11-25T08:24:42.662Z,6.15
2018-11-25T08:27:14.488Z,6.13
2018-11-25T08:29:48.189Z,6.11
2018-11-25T08:32:21.584Z,6.08
2018-11-25T08:34:52.711Z,5.99
2018-11-25T08:37:24.459Z,6.00
2018-11-25T08:39:55.048Z,5.99
2018-11-25T08:42:26.074Z,5.90
2018-11-25T08:44:57.277Z,5.77
2018-11-25T08:47:30.581Z,5.85
2018-11-25T08:50:01.521Z,5.87
2018-11-25T08:52:33.414Z,5.88
2018-11-25T08:55:05.237Z,5.84
2018-11-25T08:57:45.027Z,5.79
2018-11-25T09:00:25.330Z,5.74
2018-11-25T09:02:59.704Z,5.74
2018-11-25T09:05:30.493Z,5.76
2018-11-25T09:08:02.254Z,5.70
2018-11-25T09:10:34.201Z,5.74
2018-11-25T09:13:05.860Z,5.76
2018-11-25T09:15:39.027Z,5.84
2018-11-25T09:18:10.661Z,5.82
2018-11-25T09:20:41.253Z,5.79
2018-11-25T09:23:11.890Z,5.71
2018-11-25T09:25:43.740Z,5.78
2018-11-25T09:28:14.595Z,5.82
2018-11-25T09:30:47.782Z,5.83
2018-11-25T09:33:19.680Z,5.77
2018-11-25T09:35:50.543Z,5.72
2018-11-25T09:38:21.621Z,5.72
2018-11-25T09:40:58.970Z,5.74
2018-11-25T09:43:23.487Z,5.72
2018-11-25T09:45:54.520Z,5.63
2018-11-25T09:48:25.255Z,5.71
2018-11-25T09:50:57.056Z,5.70
2018-11-25T09:53:30.609Z,5.74
2018-11-25T09:56:02.275Z,5.70
2018-11-25T09:58:35.677Z,5.69
2018-11-25T10:01:17.980Z,5.73
2018-11-25T10:03:59.857Z,5.73
2018-11-25T10:06:31.018Z,5.73
2018-11-25T10:09:02.174Z,5.77
2018-11-25T10:11:33.313Z,5.82
2018-11-25T10:14:04.536Z,5.82
2018-11-25T10:16:35.965Z,5.84
2018-11-25T10:19:07.129Z,5.85
2018-11-25T10:21:39.801Z,5.93
2018-11-25T10:24:11.042Z,6.01
2018-11-25T10:26:43.076Z,6.04
2018-11-25T10:31:53.680Z,6.02
2018-11-25T10:34:25.381Z,6.10
2018-11-25T10:36:57.446Z,6.15
2018-11-25T10:39:30.556Z,6.18
2018-11-25T10:42:08.866Z,6.25
2018-11-25T10:44:46.657Z,6.25
2018-11-25T10:47:20.149Z,6.32
2018-11-25T10:50:01.746Z,6.25
2018-11-25T10:52:34.169Z,6.26
2018-11-25T10:55:08.832Z,6.32
2018-11-25T10:57:40.549Z,6.39
2018-11-25T11:00:40.596Z,6.41
2018-11-25T11:03:17.169Z,6.44
2018-11-25T11:05:53.673Z,6.42
2018-11-25T11:08:26.238Z,6.50
2018-11-25T11:10:56.950Z,6.49
2018-11-25T11:13:28.152Z,6.55
2018-11-25T11:16:00.400Z,6.60
2018-11-25T11:18:32.352Z,6.67
2018-11-25T11:21:04.657Z,6.68
2018-11-25T11:23:36.414Z,6.71
2018-11-25T11:26:12.605Z,6.69
2018-11-25T11:28:44.328Z,6.67
2018-11-25T11:31:15.139Z,6.74
2018-11-25T11:33:49.899Z,6.74
2018-11-25T11:36:21.653Z,6.71
2018-11-25T11:39:00.470Z,6.77
2018-11-25T11:41:34.658Z,6.83
2018-11-25T11:44:07.039Z,6.81
2018-11-25T11:46:39.179Z,6.80
2018-11-25T11:49:10.532Z,6.76
2018-11-25T11:51:41.773Z,6.74
2018-11-25T11:54:13.961Z,6.67
2018-11-25T11:56:44.925Z,6.68
2018-11-25T11:59:18.852Z,6.66
2018-11-25T12:01:50.646Z,6.72
2018-11-25T12:04:24.935Z,6.80
2018-11-25T12:06:59.819Z,6.83
2018-11-25T12:09:39.433Z,6.88
2018-11-25T12:12:11.426Z,6.92
2018-11-25T12:14:45.784Z,6.87
2018-11-25T12:17:19.313Z,6.90
2018-11-25T12:19:51.681Z,6.90
2018-11-25T12:22:22.673Z,6.97
2018-11-25T12:24:54.653Z,7.01
2018-11-25T12:27:25.474Z,6.99
2018-11-25T12:29:57.278Z,7.06
2018-11-25T12:32:28.912Z,7.04
2018-11-25T12:35:00.124Z,7.10
2018-11-25T12:37:35.878Z,7.03
2018-11-25T12:40:03.199Z,7.06
2018-11-25T12:42:34.093Z,7.13
2018-11-25T12:45:05.046Z,7.19
2018-11-25T12:47:35.844Z,7.21
2018-11-25T12:50:09.442Z,7.30
2018-11-25T12:52:40.286Z,7.25
2018-11-25T12:55:18.022Z,7.26
2018-11-25T12:57:49.943Z,7.22
2018-11-25T13:00:44.845Z,7.36
2018-11-25T13:03:15.997Z,7.38
2018-11-25T13:05:46.798Z,7.45
2018-11-25T13:08:17.656Z,7.56
2018-11-25T13:10:49.220Z,7.61
2018-11-25T13:13:20.558Z,7.44
2018-11-25T13:15:52.231Z,7.41
2018-11-25T13:18:28.638Z,7.49
2018-11-25T13:20:59.422Z,7.53
2018-11-25T13:23:29.974Z,7.50
2018-11-25T13:26:00.601Z,7.52
2018-11-25T13:28:33.121Z,7.41
2018-11-25T13:31:05.517Z,7.51
2018-11-25T13:33:36.385Z,7.45
2018-11-25T13:36:10.092Z,7.39
2018-11-25T13:38:41.563Z,7.45
2018-11-25T13:41:12.648Z,7.43
2018-11-25T13:43:43.424Z,7.43
2018-11-25T13:46:14.342Z,7.51
2018-11-25T13:48:45.460Z,7.44
2018-11-25T13:51:17.387Z,7.58
2018-11-25T13:53:48.317Z,7.59
2018-11-25T13:56:19.208Z,7.48
2018-11-25T13:58:51.056Z,7.44
2018-11-25T14:01:21.840Z,7.45
2018-11-25T14:03:52.808Z,7.48
2018-11-25T14:06:23.435Z,7.45
2018-11-25T14:08:56.245Z,7.48
2018-11-25T14:11:28.459Z,7.43
2018-11-25T14:13:59.147Z,7.40
2018-11-25T14:16:30.223Z,7.42
2018-11-25T14:19:00.840Z,7.47
2018-11-25T14:21:31.565Z,7.50
2018-11-25T14:24:02.313Z,7.48
2018-11-25T14:26:39.099Z,7.37
2018-11-25T14:29:09.916Z,7.42
2018-11-25T14:31:41.857Z,7.25
2018-11-25T14:34:12.591Z,7.20
2018-11-25T14:36:43.249Z,7.16
2018-11-25T14:39:14.873Z,7.28
2018-11-25T14:41:46.764Z,7.36
2018-11-25T14:44:17.485Z,7.43
2018-11-25T14:46:48.760Z,7.49
2018-11-25T14:49:19.392Z,7.45
2018-11-25T14:51:50.111Z,7.44
2018-11-25T14:54:20.829Z,7.33
2018-11-25T14:56:51.783Z,7.36
2018-11-25T14:59:23.059Z,7.43
2018-11-25T15:01:53.729Z,7.38
2018-11-25T15:04:24.340Z,7.36
2018-11-25T15:06:54.927Z,7.35
2018-11-25T15:09:25.557Z,7.36
2018-11-25T15:11:56.121Z,7.43
2018-11-25T15:14:26.772Z,7.51
2018-11-25T15:16:57.510Z,7.52
2018-11-25T15:19:29.148Z,7.60
2018-11-25T15:21:59.845Z,7.52
2018-11-25T15:24:30.520Z,7.45
2018-11-25T15:27:01.189Z,7.37
2018-11-25T15:29:32.119Z,7.22
2018-11-25T15:32:02.727Z,7.20
2018-11-25T15:34:34.391Z,7.22
2018-11-25T15:37:05.845Z,7.22
2018-11-25T15:39:36.648Z,7.33
2018-11-25T15:42:07.731Z,7.22
2018-11-25T15:44:38.430Z,7.27
2018-11-25T15:47:09.007Z,7.33
2018-11-25T15:49:39.615Z,7.23
2018-11-25T15:52:12.692Z,7.30
2018-11-25T15:54:43.533Z,7.25
2018-11-25T15:57:14.091Z,7.27
2018-11-25T15:59:44.824Z,7.29
2018-11-25T16:02:15.716Z,7.20
2018-11-25T16:04:46.264Z,7.18
2018-11-25T16:07:17.195Z,7.16
2018-11-25T16:09:48.137Z,7.24
2018-11-25T16:12:20.157Z,7.23
2018-11-25T16:14:51.385Z,7.30
2018-11-25T16:17:22.088Z,7.34
2018-11-25T16:19:55.107Z,7.29
2018-11-25T16:22:26.138Z,7.23
2018-11-25T16:24:56.752Z,7.24
2018-11-25T16:27:27.476Z,7.21
2018-11-25T16:29:58.386Z,7.18
2018-11-25T16:32:29.020Z,7.35
2018-11-25T16:35:00.728Z,7.49
2018-11-25T16:37:33.048Z,7.43
2018-11-25T16:40:04.550Z,7.43
2018-11-25T16:42:35.172Z,7.36
2018-11-25T16:45:08.143Z,7.36
2018-11-25T16:47:40.742Z,7.42
2018-11-25T16:50:24.931Z,7.26
2018-11-25T16:52:50.335Z,7.31
2018-11-25T16:55:21.237Z,7.21
2018-11-25T16:57:51.967Z,7.21
2018-11-25T17:00:22.881Z,7.24
2018-11-25T17:02:55.260Z,7.21
2018-11-25T17:05:31.001Z,7.19
2018-11-25T17:08:30.928Z,7.15
2018-11-25T17:11:02.398Z,7.16
2018-11-25T17:13:33.204Z,7.27
2018-11-25T17:16:04.040Z,7.30
2018-11-25T17:18:34.898Z,7.39
2018-11-25T17:21:05.713Z,7.41
2018-11-25T17:23:37.368Z,7.36
2018-11-25T17:26:10.707Z,7.29
2018-11-25T17:28:42.116Z,7.32
2018-11-25T17:31:15.726Z,7.29
2018-11-25T17:33:46.775Z,7.31
2018-11-25T17:36:19.353Z,7.23
2018-11-25T17:38:52.450Z,7.15
2018-11-25T17:41:25.445Z,7.12
2018-11-25T17:43:56.859Z,7.15
2018-11-25T17:46:29.612Z,7.02
2018-11-25T17:49:01.948Z,7.08
2018-11-25T17:51:32.981Z,7.04
2018-11-25T17:54:06.360Z,6.97
2018-11-25T17:56:39.033Z,6.94
2018-11-25T17:59:10.617Z,6.98
2018-11-25T18:01:42.004Z,6.99
2018-11-25T18:04:12.921Z,6.99
2018-11-25T18:06:44.032Z,6.97
2018-11-25T18:09:14.706Z,6.87
2018-11-25T18:11:48.230Z,6.98
2018-11-25T18:14:21.241Z,7.01
2018-11-25T18:16:53.018Z,7.00
2018-11-25T18:19:27.411Z,7.01
2018-11-25T18:22:07.139Z,6.99
2018-11-25T18:24:37.959Z,7.03
2018-11-25T18:27:14.220Z,6.99
2018-11-25T18:29:48.026Z,7.04
2018-11-25T18:32:43.109Z,7.04
2018-11-25T18:35:15.267Z,6.97
2018-11-25T18:37:47.763Z,6.99
2018-11-25T18:40:19.455Z,6.93
2018-11-25T18:42:53.170Z,6.88
2018-11-25T18:45:25.835Z,6.92
2018-11-25T18:47:57.027Z,6.86
2018-11-25T18:50:28.333Z,6.89
2018-11-25T18:53:00.531Z,6.90
2018-11-25T18:55:29.608Z,6.90
2018-11-25T18:58:02.111Z,6.83
2018-11-25T19:00:56.380Z,6.78
2018-11-25T19:03:30.445Z,6.84
2018-11-25T19:06:03.535Z,6.90
2018-11-25T19:08:35.143Z,6.86
2018-11-25T19:11:06.237Z,6.83
2018-11-25T19:13:39.568Z,6.80
2018-11-25T19:16:10.775Z,6.77
2018-11-25T19:18:43.488Z,6.66
2018-11-25T19:21:15.681Z,6.65
2018-11-25T19:23:47.653Z,6.59
2018-11-25T19:26:21.618Z,6.55
2018-11-25T19:28:54.269Z,6.54
2018-11-25T19:31:30.438Z,6.53
2018-11-25T19:34:02.201Z,6.48
2018-11-25T19:36:38.006Z,6.51
2018-11-25T19:39:13.166Z,6.57
2018-11-25T19:41:49.895Z,6.57
2018-11-25T19:44:25.364Z,6.56
2018-11-25T19:46:57.989Z,6.52
2018-11-25T19:49:30.964Z,6.54
2018-11-25T19:52:02.586Z,6.52
2018-11-25T19:54:36.233Z,6.51
2018-11-25T19:57:09.451Z,6.58
2018-11-25T19:59:43.458Z,6.62
2018-11-25T20:02:16.667Z,6.56
2018-11-25T20:04:49.968Z,6.63
2018-11-25T20:07:22.103Z,6.63
2018-11-25T20:09:53.282Z,6.65
2018-11-25T20:12:30.426Z,6.71
2018-11-25T20:15:06.250Z,6.79
2018-11-25T20:17:37.652Z,6.73
2018-11-25T20:20:15.890Z,6.71
2018-11-25T20:22:54.156Z,6.77
2018-11-25T20:25:36.978Z,6.78
2018-11-25T20:28:09.044Z,6.86
2018-11-25T20:30:40.709Z,6.83
2018-11-25T20:33:18.676Z,6.82
2018-11-25T20:35:50.417Z,6.76
2018-11-25T20:38:29.051Z,6.80
2018-11-25T20:41:02.535Z,6.84
2018-11-25T20:43:35.522Z,6.93
2018-11-25T20:46:12.703Z,6.92
2018-11-25T20:48:48.299Z,6.89
2018-11-25T20:51:24.411Z,6.89
2018-11-25T20:54:00.338Z,6.90
2018-11-25T20:56:31.927Z,6.90
2018-11-25T20:59:04.914Z,6.92
2018-11-25T21:01:36.669Z,6.95
2018-11-25T21:04:09.304Z,7.02
2018-11-25T21:06:45.457Z,7.02
2018-11-25T21:09:18.436Z,6.98
2018-11-25T21:11:49.536Z,6.96
2018-11-25T21:20:02.524Z,6.99
2018-11-25T21:22:33.271Z,6.88
2018-11-25T21:25:04.388Z,6.83
2018-11-25T21:27:35.142Z,6.91
2018-11-25T21:30:11.709Z,6.82
2018-11-25T21:32:42.444Z,6.85
2018-11-25T21:35:14.069Z,6.91
2018-11-25T21:37:44.812Z,6.88
2018-11-25T21:40:20.190Z,6.93
2018-11-25T21:42:51.968Z,6.91
2018-11-25T21:45:23.544Z,6.92
2018-11-25T21:47:54.910Z,6.84
2018-11-25T21:50:27.932Z,6.84
2018-11-25T21:52:58.710Z,6.85
2018-11-25T21:55:30.318Z,6.89
2018-11-25T21:58:01.457Z,6.87
2018-11-25T22:00:33.517Z,6.81
2018-11-25T22:03:05.451Z,6.83
2018-11-25T22:08:31.592Z,6.85
2018-11-25T22:11:03.125Z,6.81
2018-11-25T22:13:33.967Z,6.80
2018-11-25T22:16:10.642Z,6.81
2018-11-25T22:18:42.912Z,6.82
2018-11-25T22:21:13.660Z,6.83
2018-11-25T22:23:46.571Z,6.82
2018-11-25T22:26:17.854Z,6.81
2018-11-25T22:28:48.516Z,6.76
2018-11-25T22:31:19.072Z,6.82
2018-11-25T22:33:50.730Z,6.74
2018-11-25T22:36:21.390Z,6.79
2018-11-25T22:38:52.007Z,6.88
2018-11-25T22:41:23.686Z,6.85
2018-11-25T22:43:55.225Z,6.91
2018-11-25T22:46:26.606Z,6.96
2018-11-25T22:48:57.949Z,6.93
2018-11-25T22:51:28.520Z,6.96
2018-11-25T22:54:01.139Z,6.90
2018-11-25T22:56:32.872Z,6.86
2018-11-25T22:59:04.489Z,6.76
2018-11-25T23:01:35.694Z,6.76
2018-11-25T23:04:24.231Z,6.73
2018-11-25T23:07:05.005Z,6.68
2018-11-25T23:09:38.793Z,6.69
2018-11-25T23:12:10.953Z,6.69
2018-11-25T23:14:42.950Z,6.61
2018-11-25T23:17:13.740Z,6.61
2018-11-25T23:19:45.255Z,6.53
2018-11-25T23:22:16.230Z,6.50
2018-11-25T23:24:46.966Z,6.51
2018-11-25T23:27:19.010Z,6.54
2018-11-25T23:29:53.487Z,6.56
2018-11-25T23:32:25.228Z,6.64
2018-11-25T23:34:56.474Z,6.55
2018-11-25T23:37:28.560Z,6.54
2018-11-25T23:40:01.012Z,6.55
2018-11-25T23:42:31.654Z,6.57
2018-11-25T23:45:02.631Z,6.61
2018-11-25T23:49:15.995Z,6.54
2018-11-25T23:51:50.136Z,6.56
2018-11-25T23:54:22.907Z,6.49
2018-11-25T23:56:54.306Z,6.65
2018-11-25T23:59:25.842Z,6.50
